Time;durP1;ratioP1;P1;durP2;ratioP2;P2;SDS_P1;SDS_P2;PMS_P1;PMS_P2;Temp;Humidity;BMP_temperature;BMP_pressure;BME280_temperature;BME280_humidity;BME280_pressure;Samples;Min_cycle;Max_cycle;Signal;HPM_P1;HPM_P2
2022/08/14 00:01:30;;;;;;;2.10;1.20;;;24.60;45.80;;;;;;4708837;30;20147;-75
2022/08/14 00:03:58;;;;;;;3.20;1.65;;;24.60;45.90;;;;;;4724520;30;20047;-75
2022/08/14 00:06:27;;;;;;;2.22;1.27;;;24.50;46.00;;;;;;4728581;30;20080;-75
2022/08/14 00:08:55;;;;;;;2.88;1.35;;;24.50;46.10;;;;;;4746048;30;20048;-75
2022/08/14 00:11:27;;;;;;;2.03;1.30;;;24.50;46.20;;;;;;4725130;30;20056;-75
2022/08/14 00:14:01;;;;;;;2.22;1.17;;;24.50;46.40;;;;;;4741106;30;20052;-75
2022/08/14 00:16:31;;;;;;;2.30;1.40;;;24.50;46.50;;;;;;4710533;30;20103;-75
2022/08/14 00:19:11;;;;;;;2.28;1.25;;;24.40;46.50;;;;;;4740347;30;20048;-75
2022/08/14 00:21:48;;;;;;;1.58;1.00;;;24.40;46.70;;;;;;4710594;30;20059;-75
2022/08/14 00:24:18;;;;;;;3.47;1.38;;;24.40;46.80;;;;;;4680505;30;20055;-75
2022/08/14 00:26:57;;;;;;;2.05;1.25;;;24.30;46.90;;;;;;4739737;30;20060;-75
2022/08/14 00:29:29;;;;;;;;;;;24.30;47.10;;;;;;4718762;30;20076;-75
2022/08/14 00:31:59;;;;;;;2.13;1.33;;;24.20;47.00;;;;;;4723606;30;19937;-75
2022/08/14 00:34:46;;;;;;;2.13;1.25;;;24.10;47.20;;;;;;4720429;30;20052;-77
2022/08/14 00:37:14;;;;;;;2.25;1.35;;;24.20;47.40;;;;;;4741571;30;20382;-75
2022/08/14 00:39:41;;;;;;;3.70;1.42;;;24.10;47.50;;;;;;4707742;30;20112;-75
2022/08/14 00:42:09;;;;;;;2.40;1.42;;;24.10;47.60;;;;;;4729325;30;20059;-76
2022/08/14 00:44:56;;;;;;;2.47;1.60;;;24.00;47.70;;;;;;4715171;30;20166;-75
2022/08/14 00:47:24;;;;;;;2.10;1.20;;;24.00;47.80;;;;;;4705158;30;20052;-75
2022/08/14 00:49:55;;;;;;;2.05;1.10;;;24.00;48.00;;;;;;4728829;30;20052;-75
2022/08/14 00:52:24;;;;;;;2.00;1.20;;;23.90;48.10;;;;;;4731513;30;20491;-75
2022/08/14 00:54:53;;;;;;;2.55;1.50;;;23.90;48.20;;;;;;4734113;30;20109;-75
2022/08/14 00:57:30;;;;;;;2.47;1.38;;;23.90;48.30;;;;;;4728610;30;20056;-75
2022/08/14 00:59:59;;;;;;;2.45;1.60;;;23.90;48.40;;;;;;4717990;30;20040;-75
2022/08/14 01:02:27;;;;;;;2.67;1.65;;;23.80;48.50;;;;;;4723419;30;20455;-75
2022/08/14 01:04:59;;;;;;;3.00;1.38;;;23.80;48.70;;;;;;4718552;30;20483;-75
2022/08/14 01:07:28;;;;;;;2.20;1.42;;;23.80;48.70;;;;;;4740182;30;20054;-75
2022/08/14 01:10:16;;;;;;;2.25;1.10;;;23.70;48.90;;;;;;4727524;30;20091;-76
2022/08/14 01:12:44;;;;;;;2.35;1.30;;;23.70;49.00;;;;;;4711120;30;20122;-75
2022/08/14 01:15:15;;;;;;;2.00;1.17;;;23.70;49.20;;;;;;4710110;30;20102;-75
2022/08/14 01:23:20;;;;;;;2.63;1.55;;;23.50;49.40;;;;;;4734605;30;20045;-75
2022/08/14 01:25:48;;;;;;;2.20;1.42;;;23.50;49.60;;;;;;4728882;30;20162;-75
2022/08/14 01:28:21;;;;;;;2.00;1.50;;;23.50;49.80;;;;;;4711866;30;20052;-75
2022/08/14 01:31:14;;;;;;;2.17;1.45;;;23.40;49.90;;;;;;4736985;30;20070;-75
2022/08/14 01:33:46;;;;;;;1.80;1.20;;;23.40;50.00;;;;;;4732928;30;20036;-75
2022/08/14 01:36:37;;;;;;;2.53;1.30;;;23.40;50.10;;;;;;4722709;30;20156;-75
2022/08/14 01:39:09;;;;;;;1.85;1.20;;;23.30;50.20;;;;;;4731603;30;20050;-75
2022/08/14 01:41:41;;;;;;;2.35;1.50;;;23.30;50.30;;;;;;4741203;30;20033;-75
2022/08/14 01:44:14;;;;;;;2.15;1.48;;;23.30;50.50;;;;;;4736543;30;20159;-75
2022/08/14 01:47:11;;;;;;;2.58;1.33;;;23.30;50.60;;;;;;4723532;30;20057;-75
2022/08/14 01:49:53;;;;;;;3.20;1.50;;;23.20;51.30;;;;;;4722211;30;20068;-75
2022/08/14 01:52:35;;;;;;;2.60;1.75;;;23.20;50.80;;;;;;4713284;30;20075;-75
2022/08/14 01:55:30;;;;;;;2.40;1.52;;;23.10;50.80;;;;;;4712556;30;20072;-75
2022/08/14 01:57:58;;;;;;;3.00;1.83;;;23.10;51.00;;;;;;4732631;30;20052;-75
2022/08/14 02:00:53;;;;;;;2.00;1.20;;;23.10;51.20;;;;;;4715049;30;20514;-75
2022/08/14 02:03:24;;;;;;;2.53;1.80;;;23.10;51.20;;;;;;4723703;30;20119;-76
2022/08/14 02:05:58;;;;;;;2.95;1.50;;;23.00;51.30;;;;;;4737087;30;20119;-75
2022/08/14 02:08:30;;;;;;;5.07;1.70;;;23.00;51.40;;;;;;4719894;30;20051;-75
2022/08/14 02:11:21;;;;;;;2.67;1.60;;;23.00;51.50;;;;;;4706531;30;20068;-75
2022/08/14 02:14:00;;;;;;;2.33;1.50;;;22.90;51.60;;;;;;4722964;30;20057;-75
2022/08/14 02:16:41;;;;;;;2.90;1.92;;;22.90;51.70;;;;;;4736335;30;20105;-76
2022/08/14 02:19:12;;;;;;;2.10;1.33;;;22.90;51.80;;;;;;4714713;30;20094;-75
2022/08/14 02:21:45;;;;;;;2.88;1.77;;;22.90;51.90;;;;;;4734505;30;20044;-76
2022/08/14 02:24:16;;;;;;;3.08;2.08;;;22.80;52.60;;;;;;4730840;30;20045;-75
2022/08/14 02:27:04;;;;;;;1.92;1.45;;;22.80;52.10;;;;;;4740017;30;20056;-75
2022/08/14 02:29:55;;;;;;;3.08;1.80;;;22.80;52.20;;;;;;4718669;30;20140;-75
2022/08/14 02:32:32;;;;;;;3.55;1.52;;;22.70;52.30;;;;;;4736900;30;20186;-75
2022/08/14 02:35:15;;;;;;;2.03;1.23;;;22.70;52.40;;;;;;4740737;30;20076;-75
2022/08/14 02:37:47;;;;;;;1.95;1.20;;;22.70;52.60;;;;;;4731452;30;20063;-75
2022/08/14 02:40:19;;;;;;;;;;;22.70;52.70;;;;;;4721068;30;20563;-75
2022/08/14 02:42:58;;;;;;;2.33;1.48;;;22.60;52.60;;;;;;4742220;30;20003;-75
2022/08/14 02:45:32;;;;;;;3.70;1.90;;;22.50;52.70;;;;;;4717479;30;20052;-75
2022/08/14 02:48:12;;;;;;;3.03;2.05;;;22.50;52.90;;;;;;4745864;30;20075;-75
2022/08/14 02:50:59;;;;;;;2.55;1.65;;;22.60;53.00;;;;;;4731762;30;20056;-75
2022/08/14 02:53:31;;;;;;;2.53;1.75;;;22.50;53.00;;;;;;4719303;30;20056;-75
2022/08/14 02:56:00;;;;;;;2.53;1.60;;;22.50;53.10;;;;;;4734247;30;20056;-75
2022/08/14 02:58:35;;;;;;;2.73;1.60;;;22.50;53.20;;;;;;4743692;30;20044;-75
2022/08/14 03:01:03;;;;;;;2.50;1.67;;;22.50;53.30;;;;;;4700222;30;20052;-75
2022/08/14 03:03:34;;;;;;;2.85;1.88;;;22.50;53.50;;;;;;4723364;30;20049;-75
2022/08/14 03:06:06;;;;;;;3.00;2.08;;;22.40;53.40;;;;;;4723360;30;20053;-75
2022/08/14 03:08:36;;;;;;;2.85;1.70;;;22.40;53.50;;;;;;4736024;30;20052;-75
2022/08/14 03:11:08;;;;;;;3.47;2.03;;;22.40;53.70;;;;;;4711074;30;20081;-76
2022/08/14 03:13:37;;;;;;;2.50;1.60;;;22.40;53.80;;;;;;4725252;30;20114;-75
2022/08/14 03:16:09;;;;;;;2.83;1.90;;;22.30;53.80;;;;;;4727627;30;20105;-75
2022/08/14 03:18:57;;;;;;;3.20;2.13;;;22.30;54.00;;;;;;4734501;30;20433;-75
2022/08/14 03:21:26;;;;;;;2.85;2.00;;;22.30;54.10;;;;;;4741750;30;20072;-75
2022/08/14 03:24:11;;;;;;;3.42;1.95;;;22.30;54.20;;;;;;4719127;30;20052;-75
2022/08/14 03:26:51;;;;;;;3.03;1.98;;;22.20;54.30;;;;;;4734508;30;20090;-75
2022/08/14 03:29:24;;;;;;;3.00;1.50;;;22.20;54.40;;;;;;4744946;30;20056;-75
2022/08/14 03:31:53;;;;;;;2.85;1.83;;;22.10;54.50;;;;;;4718604;30;20052;-75
2022/08/14 03:34:23;;;;;;;2.97;2.10;;;22.10;54.70;;;;;;4720832;30;20076;-75
2022/08/14 03:37:11;;;;;;;3.33;2.08;;;22.10;54.90;;;;;;4718514;30;20494;-75
2022/08/14 03:39:58;;;;;;;4.30;2.15;;;22.00;55.10;;;;;;4722577;30;20051;-76
2022/08/14 03:42:26;;;;;;;3.30;1.92;;;21.90;55.10;;;;;;4734872;30;20099;-75
2022/08/14 03:45:05;;;;;;;2.97;2.03;;;21.90;55.30;;;;;;4733871;30;20053;-75
2022/08/14 03:47:51;;;;;;;2.80;1.50;;;21.90;55.40;;;;;;4717410;30;20520;-75
2022/08/14 03:50:25;;;;;;;2.83;1.55;;;21.90;55.60;;;;;;4724142;30;20062;-75
2022/08/14 03:53:01;;;;;;;3.25;2.33;;;21.80;55.60;;;;;;4718946;30;20148;-75
2022/08/14 03:55:29;;;;;;;3.57;2.03;;;21.80;55.70;;;;;;4733710;30;20462;-75
2022/08/14 03:57:57;;;;;;;3.25;2.13;;;21.80;55.80;;;;;;4740285;30;20098;-76
2022/08/14 04:00:28;;;;;;;3.30;2.20;;;21.80;55.90;;;;;;4721600;30;20052;-75
2022/08/14 04:03:11;;;;;;;4.30;2.53;;;21.70;56.00;;;;;;4721534;30;20486;-75
2022/08/14 04:05:45;;;;;;;3.47;2.33;;;21.70;56.10;;;;;;4735115;30;20063;-76
2022/08/14 04:08:16;;;;;;;3.70;2.10;;;21.70;56.20;;;;;;4720249;30;20464;-76
2022/08/14 04:10:58;;;;;;;3.35;2.08;;;21.70;56.20;;;;;;4708346;30;20060;-76
2022/08/14 04:13:29;;;;;;;3.63;2.33;;;21.70;56.30;;;;;;4705426;30;20057;-76
2022/08/14 04:16:04;;;;;;;3.28;2.20;;;21.70;56.30;;;;;;4716689;30;20429;-76
2022/08/14 04:18:43;;;;;;;3.25;2.20;;;21.70;56.40;;;;;;4728139;30;20156;-76
2022/08/14 04:21:12;;;;;;;2.75;2.03;;;21.60;56.50;;;;;;4747344;30;20140;-76
2022/08/14 04:23:42;;;;;;;3.00;2.08;;;21.60;56.60;;;;;;4727181;30;20056;-76
2022/08/14 04:26:11;;;;;;;3.13;2.08;;;21.60;56.70;;;;;;4719467;30;20064;-76
2022/08/14 04:28:42;;;;;;;3.55;2.40;;;21.60;56.80;;;;;;4718925;30;20506;-76
2022/08/14 04:31:29;;;;;;;3.45;2.33;;;21.60;56.90;;;;;;4728255;30;20068;-76
2022/08/14 04:34:16;;;;;;;4.05;2.58;;;21.50;56.90;;;;;;4731898;30;20135;-76
2022/08/14 04:46:01;;;;;;;3.42;2.08;;;21.50;56.80;;;;;;4721228;30;19945;-76
2022/08/14 04:48:21;;;;;;;3.30;2.35;;;21.50;56.90;;;;;;4734746;30;20411;-76
2022/08/14 04:51:11;;;;;;;3.15;2.25;;;21.50;56.90;;;;;;4707078;30;20084;-76
2022/08/14 04:53:42;;;;;;;3.60;2.10;;;21.50;57.00;;;;;;4734652;30;20041;-76
2022/08/14 04:56:15;;;;;;;3.15;2.20;;;21.60;57.10;;;;;;4717222;30;20056;-76
2022/08/14 04:59:03;;;;;;;3.22;2.20;;;21.60;57.10;;;;;;4726333;30;20064;-76
2022/08/14 05:01:43;;;;;;;3.15;2.17;;;21.60;57.10;;;;;;4741153;30;20123;-76
2022/08/14 05:04:20;;;;;;;3.17;2.38;;;21.60;57.20;;;;;;4734675;30;20048;-76
2022/08/14 05:06:49;;;;;;;;;;;21.60;57.30;;;;;;4726395;30;20693;-76
2022/08/14 05:09:21;;;;;;;2.78;1.98;;;21.60;57.10;;;;;;4698734;30;19934;-76
2022/08/14 05:11:49;;;;;;;4.13;2.50;;;21.60;57.20;;;;;;4729534;30;20044;-76
2022/08/14 05:14:19;;;;;;;3.58;2.35;;;21.60;57.90;;;;;;4718864;30;20064;-77
2022/08/14 05:17:06;;;;;;;4.22;3.20;;;21.70;57.40;;;;;;4709536;30;20048;-76
2022/08/14 05:19:33;;;;;;;3.45;2.47;;;21.60;57.30;;;;;;4718153;30;20131;-77
2022/08/14 05:22:10;;;;;;;4.20;3.03;;;21.70;57.30;;;;;;4699149;30;20056;-74
2022/08/14 05:24:48;;;;;;;3.65;2.30;;;21.70;57.30;;;;;;4733549;30;20197;-76
2022/08/14 05:27:19;;;;;;;3.30;2.47;;;21.80;57.30;;;;;;4738181;30;20044;-76
2022/08/14 05:29:51;;;;;;;3.40;2.08;;;21.80;57.30;;;;;;4718748;30;20055;-76
2022/08/14 05:32:19;;;;;;;4.53;2.20;;;21.80;57.30;;;;;;4738883;30;20184;-75
2022/08/14 05:34:46;;;;;;;3.22;2.13;;;21.90;57.30;;;;;;4718768;30;20088;-75
2022/08/14 05:37:13;;;;;;;3.13;1.90;;;21.90;57.30;;;;;;4706398;30;20053;-75
2022/08/14 05:39:41;;;;;;;3.63;2.72;;;21.90;57.30;;;;;;4716362;30;20411;-74
2022/08/14 05:42:09;;;;;;;3.40;2.42;;;22.00;57.40;;;;;;4721545;30;20049;-73
2022/08/14 05:44:54;;;;;;;4.35;2.72;;;22.00;57.90;;;;;;4723929;30;20123;-76
2022/08/14 05:47:22;;;;;;;3.50;2.17;;;22.10;57.30;;;;;;4715637;30;20045;-76
2022/08/14 05:49:49;;;;;;;3.55;1.98;;;22.10;57.20;;;;;;4718780;30;20087;-75
2022/08/14 05:52:17;;;;;;;3.45;2.38;;;22.20;57.10;;;;;;4716361;30;20231;-75
2022/08/14 05:55:07;;;;;;;3.90;2.40;;;22.30;57.10;;;;;;4718150;30;20055;-75
2022/08/14 05:57:48;;;;;;;3.60;2.65;;;22.30;57.00;;;;;;4735111;30;20049;-76
2022/08/14 06:00:18;;;;;;;4.13;2.45;;;22.50;57.00;;;;;;4713509;30;20668;-76
2022/08/14 06:02:56;;;;;;;3.20;2.08;;;22.50;56.90;;;;;;4715337;30;20076;-75
2022/08/14 06:05:23;;;;;;;4.00;2.33;;;22.50;56.80;;;;;;4715476;30;20119;-75
2022/08/14 06:07:55;;;;;;;2.92;2.05;;;22.60;56.80;;;;;;4714633;30;20060;-75
2022/08/14 06:10:23;;;;;;;4.20;2.55;;;22.60;56.70;;;;;;4716805;30;20103;-75
2022/08/14 06:12:51;;;;;;;3.25;2.20;;;22.80;56.70;;;;;;4702932;30;20049;-75
2022/08/14 06:15:23;;;;;;;3.13;2.15;;;22.80;57.30;;;;;;4703504;30;20056;-74
2022/08/14 06:17:56;;;;;;;4.22;2.85;;;22.90;56.50;;;;;;4717440;30;20125;-75
2022/08/14 06:20:26;;;;;;;2.85;2.08;;;22.90;56.40;;;;;;4715899;30;20080;-75
2022/08/14 06:22:54;;;;;;;3.45;2.22;;;23.00;56.30;;;;;;4719121;30;20059;-74
2022/08/14 06:25:22;;;;;;;3.53;2.13;;;23.10;56.30;;;;;;4714264;30;20447;-75
2022/08/14 06:27:51;;;;;;;3.10;2.40;;;23.10;56.20;;;;;;4713998;30;20049;-74
2022/08/14 06:30:24;;;;;;;5.65;3.67;;;23.20;56.20;;;;;;4720658;30;20489;-75
2022/08/14 06:33:11;;;;;;;3.38;2.53;;;23.30;56.20;;;;;;4714183;30;20098;-75
2022/08/14 06:35:42;;;;;;;3.47;2.42;;;23.30;56.20;;;;;;4714149;30;20128;-75
2022/08/14 06:38:18;;;;;;;3.38;2.70;;;23.30;56.10;;;;;;4714595;30;20140;-75
2022/08/14 06:40:49;;;;;;;3.33;2.20;;;23.40;56.10;;;;;;4723059;30;20056;-75
2022/08/14 06:43:18;;;;;;;3.40;2.45;;;23.40;56.10;;;;;;4724007;30;20127;-75
2022/08/14 06:45:46;;;;;;;3.55;2.60;;;23.50;56.00;;;;;;4717654;30;20162;-75
2022/08/14 06:48:24;;;;;;;3.20;2.33;;;23.60;56.00;;;;;;4723911;30;20063;-75
2022/08/14 06:50:54;;;;;;;3.63;2.70;;;23.60;55.80;;;;;;4724332;30;20490;-75
2022/08/14 06:53:23;;;;;;;4.30;3.00;;;23.70;55.80;;;;;;4717617;30;20123;-75
2022/08/14 06:55:56;;;;;;;3.78;2.88;;;23.70;55.70;;;;;;4713652;30;20049;-75
2022/08/14 06:58:26;;;;;;;4.82;2.92;;;23.80;55.80;;;;;;4720633;30;20414;-75
2022/08/14 07:06:53;;;;;;;3.67;2.88;;;24.00;55.60;;;;;;4714090;30;20422;-75
2022/08/14 07:09:24;;;;;;;4.30;3.00;;;24.00;55.50;;;;;;4720476;30;20250;-75
2022/08/14 07:11:53;;;;;;;4.25;3.13;;;24.20;55.50;;;;;;4721615;30;20057;-75
2022/08/14 07:14:22;;;;;;;3.85;3.08;;;24.20;55.40;;;;;;4718154;30;20053;-75
2022/08/14 07:16:49;;;;;;;3.92;2.70;;;24.30;55.30;;;;;;4722461;30;20091;-75
2022/08/14 07:19:17;;;;;;;4.05;2.85;;;24.40;55.30;;;;;;4708913;30;20128;-75
2022/08/14 07:21:47;;;;;;;3.53;2.75;;;24.50;55.20;;;;;;4702976;30;20144;-75
2022/08/14 07:24:16;;;;;;;4.00;2.90;;;24.60;55.10;;;;;;4713901;30;20458;-75
2022/08/14 07:26:57;;;;;;;3.97;2.80;;;24.70;55.00;;;;;;4723865;30;20052;-77
2022/08/14 07:29:25;;;;;;;3.75;2.50;;;24.80;54.90;;;;;;4708237;30;20514;-75
2022/08/14 07:31:55;;;;;;;3.65;2.88;;;24.90;54.80;;;;;;4708933;30;20077;-75
2022/08/14 07:34:22;;;;;;;3.58;2.88;;;25.00;54.70;;;;;;4717677;30;20053;-76
2022/08/14 07:37:03;;;;;;;4.07;2.85;;;25.00;54.60;;;;;;4717471;30;20091;-77
2022/08/14 07:39:30;;;;;;;4.10;2.92;;;25.20;54.50;;;;;;4720302;30;20131;-78
2022/08/14 07:42:01;;;;;;;3.60;2.38;;;25.20;54.40;;;;;;4712041;30;20045;-77
2022/08/14 07:44:28;;;;;;;3.38;2.35;;;25.30;54.30;;;;;;4688966;30;20476;-77
2022/08/14 07:47:15;;;;;;;3.58;2.42;;;25.40;54.30;;;;;;4689106;30;20136;-77
2022/08/14 07:50:02;;;;;;;3.05;2.00;;;25.50;54.20;;;;;;4714780;30;20049;-77
2022/08/14 07:52:29;;;;;;;3.55;2.55;;;25.60;54.20;;;;;;4732656;30;20108;-77
2022/08/14 07:54:59;;;;;;;3.70;2.80;;;25.70;54.10;;;;;;4717345;30;20053;-77
2022/08/14 07:57:27;;;;;;;3.45;2.50;;;25.80;54.00;;;;;;4703242;30;20455;-77
2022/08/14 07:59:54;;;;;;;2.88;2.20;;;25.90;53.90;;;;;;4717802;30;20050;-76
2022/08/14 08:02:21;;;;;;;3.30;2.30;;;26.00;53.80;;;;;;4718071;30;20042;-75
2022/08/14 08:04:52;;;;;;;4.28;2.53;;;26.10;53.70;;;;;;4716590;30;20083;-75
2022/08/14 08:07:24;;;;;;;3.85;2.80;;;26.10;53.50;;;;;;4716433;30;20064;-75
2022/08/14 08:09:57;;;;;;;3.40;2.67;;;26.20;53.40;;;;;;4724880;30;20050;-76
2022/08/14 08:12:27;;;;;;;3.65;2.88;;;26.30;53.30;;;;;;4721358;30;20381;-76
2022/08/14 08:14:59;;;;;;;3.22;2.55;;;26.40;53.30;;;;;;4718677;30;20049;-78
2022/08/14 08:17:38;;;;;;;3.20;2.53;;;26.50;53.20;;;;;;4727730;30;20119;-76
2022/08/14 08:20:25;;;;;;;3.08;2.53;;;26.60;53.20;;;;;;4721377;30;20586;-76
2022/08/14 08:22:58;;;;;;;3.45;2.33;;;26.60;53.00;;;;;;4717673;30;20045;-76
2022/08/14 08:25:35;;;;;;;3.63;2.63;;;26.70;52.90;;;;;;4716128;30;20041;-77
2022/08/14 08:28:08;;;;;;;3.50;2.20;;;26.80;52.80;;;;;;4718770;30;20053;-77
2022/08/14 08:30:50;;;;;;;3.42;2.38;;;26.90;52.70;;;;;;4721504;30;20040;-76
2022/08/14 08:33:19;;;;;;;4.05;2.35;;;27.00;52.60;;;;;;4722562;30;20084;-77
2022/08/14 08:35:47;;;;;;;3.65;2.63;;;27.10;52.40;;;;;;4688007;30;20477;-80
2022/08/14 08:38:19;;;;;;;4.05;2.42;;;27.20;52.30;;;;;;4715125;30;20414;-80
2022/08/14 08:41:06;;;;;;;3.70;2.80;;;27.30;52.20;;;;;;4711223;30;20136;-79
2022/08/14 08:43:38;;;;;;;3.70;3.10;;;27.40;52.10;;;;;;4708834;30;20103;-76
2022/08/14 08:46:18;;;;;;;3.53;2.33;;;27.50;51.90;;;;;;4709994;30;20511;-77
2022/08/14 08:48:52;;;;;;;3.92;2.53;;;27.60;51.90;;;;;;4716379;30;20060;-78
2022/08/14 08:51:31;;;;;;;3.60;2.67;;;27.70;51.70;;;;;;4716321;30;20045;-77
2022/08/14 08:54:04;;;;;;;3.42;2.75;;;27.80;51.40;;;;;;4717395;30;20084;-77
2022/08/14 08:56:48;;;;;;;4.63;2.40;;;27.90;51.40;;;;;;4724272;30;20053;-77
2022/08/14 08:59:26;;;;;;;3.88;2.30;;;27.90;51.20;;;;;;4715279;30;20288;-77
2022/08/14 09:02:04;;;;;;;2.63;2.20;;;28.00;51.20;;;;;;4712114;30;20045;-77
2022/08/14 09:04:36;;;;;;;3.42;2.33;;;28.10;51.20;;;;;;4717522;30;20498;-77
2022/08/14 09:07:13;;;;;;;2.65;2.08;;;28.10;51.00;;;;;;4715817;30;20089;-77
2022/08/14 09:09:51;;;;;;;2.55;2.00;;;28.20;51.50;;;;;;4716430;30;20057;-79
2022/08/14 09:12:23;;;;;;;2.75;2.08;;;28.30;50.80;;;;;;4687691;30;20079;-79
2022/08/14 09:14:52;;;;;;;2.80;2.10;;;28.40;50.70;;;;;;4717798;30;20111;-79
2022/08/14 09:17:19;;;;;;;3.22;2.13;;;28.50;50.60;;;;;;4714904;30;20068;-79
2022/08/14 09:19:52;;;;;;;2.97;2.47;;;28.60;50.50;;;;;;4704983;30;20048;-79
2022/08/14 09:22:21;;;;;;;3.33;2.40;;;28.70;50.30;;;;;;4695178;30;20127;-80
2022/08/14 09:25:04;;;;;;;3.00;2.20;;;28.80;50.30;;;;;;4713374;30;20600;-79
2022/08/14 09:27:35;;;;;;;2.90;2.10;;;28.90;50.10;;;;;;4705072;30;20081;-79
2022/08/14 09:30:06;;;;;;;3.40;2.58;;;28.90;49.90;;;;;;4712782;30;20058;-79
2022/08/14 09:33:02;;;;;;;3.65;2.33;;;29.10;49.80;;;;;;4710776;30;20061;-80
2022/08/14 09:36:12;;;;;;;2.83;2.08;;;29.10;49.70;;;;;;4702229;30;20130;-80
2022/08/14 09:39:23;;;;;;;3.00;2.00;;;29.20;49.50;;;;;;4708956;30;20136;-81
2022/08/14 09:42:03;;;;;;;3.03;2.50;;;29.30;49.40;;;;;;4699939;30;20068;-80
2022/08/14 09:45:01;;;;;;;2.88;2.40;;;29.30;49.30;;;;;;4702130;30;20363;-80
2022/08/14 09:47:52;;;;;;;3.00;2.13;;;29.40;49.10;;;;;;4715502;30;20065;-80
2022/08/14 09:50:28;;;;;;;2.72;2.15;;;29.50;48.90;;;;;;4715299;30;20045;-81
2022/08/14 09:52:57;;;;;;;3.35;2.00;;;29.50;48.70;;;;;;4716642;30;20511;-80
2022/08/14 09:55:26;;;;;;;3.10;2.00;;;29.60;48.70;;;;;;4716401;30;20049;-83
2022/08/14 09:58:14;;;;;;;3.65;2.10;;;29.70;48.60;;;;;;4705690;30;20143;-81
2022/08/14 10:00:53;;;;;;;3.28;2.15;;;29.80;48.40;;;;;;4715130;30;20052;-80
2022/08/14 10:03:29;;;;;;;2.97;2.08;;;29.90;48.40;;;;;;4715256;30;20060;-80
2022/08/14 10:06:11;;;;;;;3.00;2.03;;;30.00;48.30;;;;;;4718901;30;20075;-81
2022/08/14 10:08:51;;;;;;;2.75;2.08;;;30.00;48.10;;;;;;4729702;30;20064;-83
2022/08/14 10:11:26;;;;;;;3.85;2.33;;;30.10;47.90;;;;;;4709596;30;20053;-85
2022/08/14 10:14:19;;;;;;;2.90;2.15;;;30.20;47.70;;;;;;4730739;30;20053;-84
2022/08/14 10:17:03;;;;;;;2.40;1.80;;;30.40;47.50;;;;;;4706352;30;20511;-82
2022/08/14 10:19:33;;;;;;;2.67;2.08;;;30.40;47.40;;;;;;4712777;30;20478;-83
2022/08/14 10:22:09;;;;;;;2.90;2.35;;;30.50;47.30;;;;;;4701268;30;20081;-82
2022/08/14 10:24:56;;;;;;;3.13;2.47;;;30.50;47.10;;;;;;4725514;30;20052;-80
2022/08/14 10:27:27;;;;;;;2.55;2.03;;;30.50;47.00;;;;;;4704318;30;20060;-83
2022/08/14 10:30:00;;;;;;;2.92;2.38;;;30.60;46.80;;;;;;4697731;30;20045;-81
2022/08/14 10:32:28;;;;;;;2.78;1.90;;;30.90;46.40;;;;;;4721907;30;20053;-80
2022/08/14 10:35:10;;;;;;;3.00;2.50;;;31.10;46.00;;;;;;4714393;30;20144;-81
2022/08/14 10:37:48;;;;;;;3.05;2.25;;;31.40;45.70;;;;;;4709043;30;20056;-81
2022/08/14 10:40:26;;;;;;;2.63;1.85;;;31.60;45.40;;;;;;4714674;30;20057;-80
2022/08/14 10:43:19;;;;;;;2.08;1.63;;;31.80;45.10;;;;;;4719020;30;20057;-80
2022/08/14 10:45:57;;;;;;;4.15;2.15;;;32.00;44.60;;;;;;4700925;30;20057;-80
2022/08/14 10:49:01;;;;;;;1.83;1.35;;;32.20;44.40;;;;;;4719424;30;20159;-80
2022/08/14 10:51:31;;;;;;;2.30;1.67;;;32.40;44.10;;;;;;4702968;30;20140;-79
2022/08/14 10:54:07;;;;;;;2.78;2.03;;;32.60;43.80;;;;;;4704022;30;20533;-80
2022/08/14 10:56:54;;;;;;;2.00;1.40;;;32.80;44.10;;;;;;4732701;30;20045;-80
2022/08/14 10:59:22;;;;;;;2.65;2.00;;;32.90;43.30;;;;;;4708266;30;20066;-80
2022/08/14 11:02:19;;;;;;;2.97;2.10;;;33.10;43.10;;;;;;4718107;30;20563;-79
2022/08/14 11:05:14;;;;;;;2.15;1.88;;;33.20;42.80;;;;;;4717918;30;20045;-80
2022/08/14 11:07:52;;;;;;;3.75;2.13;;;33.30;42.60;;;;;;4702531;30;20144;-80
2022/08/14 11:10:25;;;;;;;2.22;1.80;;;33.40;42.50;;;;;;4722210;30;20088;-80
2022/08/14 11:12:55;;;;;;;;;;;33.50;42.30;;;;;;4729459;30;20053;-80
2022/08/14 11:15:27;;;;;;;2.47;1.80;;;33.50;42.40;;;;;;4716849;30;20135;-81
2022/08/14 11:18:01;;;;;;;3.17;1.95;;;33.40;42.30;;;;;;4711465;30;20148;-79
2022/08/14 11:20:30;;;;;;;2.35;1.98;;;33.30;42.20;;;;;;4715029;30;20148;-80
2022/08/14 11:22:59;;;;;;;2.70;1.77;;;33.30;42.10;;;;;;4718947;30;20466;-80
2022/08/14 11:25:30;;;;;;;3.08;2.35;;;33.10;42.10;;;;;;4703082;30;20072;-81
2022/08/14 11:28:13;;;;;;;2.88;2.17;;;33.10;42.20;;;;;;4717497;30;20146;-84
2022/08/14 11:30:48;;;;;;;2.38;1.88;;;33.10;41.90;;;;;;4730781;30;20049;-82
2022/08/14 11:33:30;;;;;;;2.28;1.92;;;33.40;41.70;;;;;;4702724;30;20053;-81
2022/08/14 11:35:59;;;;;;;2.85;1.92;;;33.70;41.20;;;;;;4723134;30;20038;-82
2022/08/14 11:38:42;;;;;;;2.20;1.77;;;34.00;41.10;;;;;;4721267;30;20049;-81
2022/08/14 11:41:14;;;;;;;2.75;1.80;;;34.20;40.60;;;;;;4714625;30;20049;-81
2022/08/14 11:43:46;;;;;;;2.42;1.80;;;34.40;40.30;;;;;;4717937;30;20134;-82
2022/08/14 11:46:25;;;;;;;2.60;1.37;;;34.70;40.10;;;;;;4715226;30;20450;-83
2022/08/14 11:49:03;;;;;;;2.10;1.30;;;34.90;39.90;;;;;;4705021;30;20053;-82
2022/08/14 11:51:33;;;;;;;1.95;1.50;;;35.10;39.60;;;;;;4708447;30;20396;-80
2022/08/14 11:54:05;;;;;;;2.30;1.77;;;35.30;39.30;;;;;;4703467;30;20421;-80
2022/08/14 11:56:36;;;;;;;2.28;1.50;;;35.40;39.20;;;;;;4707010;30;20053;-82
2022/08/14 11:59:05;;;;;;;1.90;1.60;;;35.70;39.10;;;;;;4715291;30;20069;-80
2022/08/14 12:01:36;;;;;;;2.60;1.50;;;35.60;38.80;;;;;;4725082;30;20533;-80
2022/08/14 12:04:08;;;;;;;2.38;1.70;;;35.10;39.20;;;;;;4717040;30;20061;-80
2022/08/14 12:06:55;;;;;;;2.75;1.30;;;34.90;39.30;;;;;;4728580;30;20080;-81
2022/08/14 12:09:37;;;;;;;2.20;1.60;;;35.30;39.10;;;;;;4702786;30;20136;-80
2022/08/14 12:12:17;;;;;;;2.35;1.58;;;35.80;38.70;;;;;;4716807;30;20056;-79
2022/08/14 12:15:04;;;;;;;2.22;1.63;;;36.10;38.40;;;;;;4718089;30;20511;-79
2022/08/14 12:17:47;;;;;;;2.13;1.45;;;36.30;38.20;;;;;;4716711;30;20135;-81
2022/08/14 12:20:16;;;;;;;3.58;1.20;;;36.20;38.00;;;;;;4717268;30;20137;-81
2022/08/14 12:22:59;;;;;;;1.52;1.23;;;36.30;38.10;;;;;;4718437;30;20049;-84
2022/08/14 12:25:27;;;;;;;1.73;1.30;;;36.40;37.90;;;;;;4688737;30;20482;-85
2022/08/14 12:27:56;;;;;;;2.08;1.38;;;36.40;37.80;;;;;;4701648;30;20494;-85
2022/08/14 12:30:34;;;;;;;1.80;1.20;;;36.50;37.60;;;;;;4709815;30;20053;-84
2022/08/14 12:33:25;;;;;;;2.03;1.20;;;36.70;37.40;;;;;;4724766;30;20057;-84
2022/08/14 12:36:19;;;;;;;2.08;1.25;;;37.00;37.20;;;;;;4703506;30;20512;-84
2022/08/14 12:38:49;;;;;;;1.95;1.00;;;37.10;36.90;;;;;;4706678;30;20049;-83
2022/08/14 12:41:22;;;;;;;2.28;1.48;;;37.30;37.50;;;;;;4719070;30;20477;-83
2022/08/14 12:44:05;;;;;;;2.33;1.30;;;37.60;36.60;;;;;;4717192;30;20073;-83
2022/08/14 12:46:36;;;;;;;1.80;1.30;;;37.80;36.30;;;;;;4715618;30;20053;-87
2022/08/14 12:49:08;;;;;;;;;;;37.80;36.30;;;;;;4729557;30;20096;-82
2022/08/14 12:51:39;;;;;;;2.00;1.02;;;37.90;37.10;;;;;;4702079;30;19930;-82
2022/08/14 12:54:19;;;;;;;2.00;1.33;;;37.90;36.30;;;;;;4703180;30;20487;-86
2022/08/14 12:57:13;;;;;;;1.20;1.00;;;37.80;36.10;;;;;;4703405;30;20053;-80
2022/08/14 12:59:47;;;;;;;2.22;1.23;;;37.70;36.20;;;;;;4713941;30;20057;-85
2022/08/14 13:02:23;;;;;;;2.00;1.50;;;37.40;36.30;;;;;;4714594;30;20473;-82
2022/08/14 13:04:54;;;;;;;1.90;1.40;;;37.10;36.90;;;;;;4700174;30;20071;-83
2022/08/14 13:07:25;;;;;;;2.78;1.77;;;36.90;36.50;;;;;;4729605;30;20144;-83
2022/08/14 13:10:03;;;;;;;2.53;1.95;;;36.50;36.60;;;;;;4717453;30;20450;-90
2022/08/14 13:12:56;;;;;;;2.17;1.80;;;35.80;36.70;;;;;;4706681;30;20046;-90
2022/08/14 13:15:49;;;;;;;2.25;1.75;;;35.40;37.30;;;;;;4712490;30;20057;-87
2022/08/14 13:18:25;;;;;;;1.90;1.45;;;35.00;37.50;;;;;;4700884;30;20436;-92
2022/08/14 13:20:55;;;;;;;2.33;1.77;;;34.80;37.80;;;;;;4714137;30;20057;-85
2022/08/14 13:23:29;;;;;;;2.25;1.70;;;34.80;37.90;;;;;;4717049;30;20148;-82
2022/08/14 13:25:59;;;;;;;1.90;1.60;;;34.70;37.90;;;;;;4702909;30;20121;-88
2022/08/14 13:28:27;;;;;;;1.75;1.40;;;34.60;37.80;;;;;;4702312;30;20076;-84
2022/08/14 13:31:22;;;;;;;2.42;1.50;;;34.60;37.90;;;;;;4692602;30;20410;-84
2022/08/14 13:34:02;;;;;;;2.55;1.90;;;34.50;37.70;;;;;;4705716;30;20057;-85
2022/08/14 13:36:38;;;;;;;2.60;1.98;;;34.10;37.70;;;;;;4700301;30;20057;-83
2022/08/14 13:39:28;;;;;;;2.60;1.88;;;33.90;37.90;;;;;;4703850;30;20149;-86
2022/08/14 13:42:07;;;;;;;2.50;1.77;;;33.80;37.80;;;;;;4702861;30;20041;-85
2022/08/14 13:44:40;;;;;;;1.67;1.30;;;33.80;37.80;;;;;;4720359;30;20065;-90
2022/08/14 13:47:13;;;;;;;2.08;1.70;;;33.90;37.80;;;;;;4702620;30;20411;-83
2022/08/14 13:49:46;;;;;;;2.22;1.65;;;33.90;37.70;;;;;;4716608;30;20083;-83
2022/08/14 13:52:25;;;;;;;1.80;1.27;;;33.90;37.70;;;;;;4715937;30;20048;-82